createdAt,value
2022-10-14T00:01:42.989Z,36.80
2022-10-14T00:04:09.491Z,42.90
2022-10-14T00:06:35.936Z,41.03
2022-10-14T00:09:06.956Z,38.33
2022-10-14T00:11:35.077Z,40.42
2022-10-14T00:14:12.275Z,39.13
2022-10-14T00:16:41.139Z,37.97
2022-10-14T00:19:08.090Z,35.92
2022-10-14T00:21:35.442Z,39.13
2022-10-14T00:24:01.890Z,37.50
2022-10-14T00:26:31.608Z,38.45
2022-10-14T00:28:59.362Z,35.55
2022-10-14T00:31:26.878Z,36.50
2022-10-14T00:33:53.322Z,35.28
2022-10-14T00:36:21.444Z,39.22
2022-10-14T00:38:48.728Z,37.95
2022-10-14T00:41:22.145Z,37.58
2022-10-14T00:43:59.490Z,35.38
2022-10-14T00:46:28.099Z,35.83
2022-10-14T00:48:55.801Z,33.85
2022-10-14T00:51:22.432Z,36.97
2022-10-14T00:53:48.927Z,39.78
2022-10-14T00:56:21.280Z,37.50
2022-10-14T00:58:47.904Z,36.40
2022-10-14T01:01:14.295Z,34.38
2022-10-14T01:03:41.228Z,35.00
2022-10-14T01:06:19.142Z,37.90
2022-10-14T01:09:14.823Z,33.13
2022-10-14T01:12:30.169Z,34.13
2022-10-14T01:15:22.798Z,33.80
2022-10-14T01:18:54.074Z,34.97
2022-10-14T01:21:36.512Z,34.22
2022-10-14T01:24:43.213Z,34.40
2022-10-14T01:27:18.321Z,34.78
2022-10-14T01:30:06.940Z,36.70
2022-10-14T01:32:38.279Z,34.80
2022-10-14T01:35:46.685Z,34.03
2022-10-14T01:38:21.968Z,34.38
2022-10-14T01:41:17.743Z,32.55
2022-10-14T01:43:48.481Z,31.52
2022-10-14T01:46:17.516Z,30.77
2022-10-14T01:48:50.833Z,30.58
2022-10-14T01:51:24.928Z,28.92
2022-10-14T01:53:57.933Z,30.88
2022-10-14T01:56:27.894Z,29.73
2022-10-14T01:58:54.970Z,32.53
2022-10-14T02:01:21.550Z,31.63
2022-10-14T02:03:48.441Z,29.67
2022-10-14T02:06:30.025Z,31.23
2022-10-14T02:09:14.915Z,34.00
2022-10-14T02:11:59.037Z,35.55
2022-10-14T02:14:39.095Z,35.45
2022-10-14T02:17:21.677Z,34.38
2022-10-14T02:19:57.797Z,34.13
2022-10-14T02:22:36.416Z,32.90
2022-10-14T02:25:18.635Z,34.50
2022-10-14T02:27:48.156Z,35.53
2022-10-14T02:30:16.565Z,35.63
2022-10-14T02:32:44.829Z,34.42
2022-10-14T02:35:15.485Z,33.75
2022-10-14T02:37:42.126Z,33.47
2022-10-14T02:40:13.676Z,32.70
2022-10-14T02:42:40.089Z,31.80
2022-10-14T02:45:08.758Z,34.13
2022-10-14T02:47:35.174Z,29.75
2022-10-14T02:50:01.684Z,27.95
2022-10-14T02:52:28.155Z,27.90
2022-10-14T02:54:54.559Z,28.17
2022-10-14T02:57:20.997Z,34.00
2022-10-14T02:59:47.785Z,32.25
2022-10-14T03:02:14.262Z,34.03
2022-10-14T03:04:40.734Z,30.13
2022-10-14T03:07:07.181Z,32.08
2022-10-14T03:09:33.625Z,32.47
2022-10-14T03:12:00.124Z,30.38
2022-10-14T03:14:26.623Z,34.08
2022-10-14T03:16:53.051Z,35.72
2022-10-14T03:19:19.495Z,35.42
2022-10-14T03:21:46.037Z,36.67
2022-10-14T03:24:12.621Z,37.95
2022-10-14T03:26:39.038Z,36.83
2022-10-14T03:29:05.487Z,36.95
2022-10-14T03:31:31.887Z,32.95
2022-10-14T03:33:58.325Z,30.83
2022-10-14T03:36:24.870Z,30.88
2022-10-14T03:38:51.273Z,31.77
2022-10-14T03:41:17.759Z,31.17
2022-10-14T03:43:44.164Z,34.58
2022-10-14T03:46:10.593Z,29.50
2022-10-14T03:48:37.401Z,28.27
2022-10-14T03:51:03.905Z,31.05
2022-10-14T03:53:30.322Z,29.77
2022-10-14T03:55:56.800Z,31.85
2022-10-14T03:58:23.209Z,32.08
2022-10-14T04:00:49.684Z,29.58
2022-10-14T04:03:16.140Z,28.48
2022-10-14T04:05:42.628Z,31.83
2022-10-14T04:08:09.160Z,31.58
2022-10-14T04:10:35.679Z,34.63
2022-10-14T04:13:02.143Z,32.17
2022-10-14T04:15:28.638Z,33.92
2022-10-14T04:17:56.090Z,31.40
2022-10-14T04:20:22.560Z,31.00
2022-10-14T04:22:48.973Z,32.67
2022-10-14T04:25:15.466Z,29.60
2022-10-14T04:27:41.863Z,32.42
2022-10-14T04:30:09.889Z,31.75
2022-10-14T04:32:36.322Z,34.22
2022-10-14T04:35:02.864Z,30.27
2022-10-14T04:37:30.315Z,31.30
2022-10-14T04:39:56.755Z,33.08
2022-10-14T04:42:23.563Z,27.08
2022-10-14T04:44:50.610Z,29.70
2022-10-14T04:47:17.040Z,28.15
2022-10-14T04:49:43.461Z,31.77
2022-10-14T04:52:09.884Z,30.67
2022-10-14T04:54:36.292Z,31.05
2022-10-14T04:57:02.805Z,32.30
2022-10-14T04:59:29.270Z,31.77
2022-10-14T05:01:55.790Z,32.75
2022-10-14T05:04:22.477Z,37.97
2022-10-14T05:06:48.974Z,32.80
2022-10-14T05:09:15.369Z,30.27
2022-10-14T05:11:41.843Z,32.97
2022-10-14T05:14:08.278Z,32.63
2022-10-14T05:16:34.763Z,31.23
2022-10-14T05:19:01.153Z,34.30
2022-10-14T05:21:27.605Z,31.70
2022-10-14T05:23:54.023Z,28.52
2022-10-14T05:26:20.449Z,29.45
2022-10-14T05:28:46.941Z,31.63
2022-10-14T05:31:13.499Z,30.98
2022-10-14T05:33:39.947Z,31.65
2022-10-14T05:36:06.896Z,31.42
2022-10-14T05:38:34.148Z,29.88
2022-10-14T05:41:00.752Z,26.88
2022-10-14T05:43:32.108Z,29.15
2022-10-14T05:45:59.869Z,27.92
2022-10-14T05:48:26.404Z,29.25
2022-10-14T05:50:52.926Z,27.23
2022-10-14T05:53:19.482Z,26.13
2022-10-14T05:55:45.900Z,25.92
2022-10-14T05:58:12.308Z,25.70
2022-10-14T06:00:38.813Z,27.85
2022-10-14T06:03:05.555Z,24.50
2022-10-14T06:05:36.434Z,27.75
2022-10-14T06:08:03.235Z,25.73
2022-10-14T06:10:29.663Z,27.30
2022-10-14T06:12:56.731Z,29.40
2022-10-14T06:15:23.226Z,27.75
2022-10-14T06:17:49.647Z,32.80
2022-10-14T06:20:16.073Z,32.08
2022-10-14T06:22:42.501Z,27.35
2022-10-14T06:25:09.413Z,32.15
2022-10-14T06:27:35.819Z,31.75
2022-10-14T06:30:02.369Z,32.08
2022-10-14T06:32:28.828Z,35.65
2022-10-14T06:34:55.343Z,35.15
2022-10-14T06:37:21.784Z,34.80
2022-10-14T06:39:48.203Z,36.03
2022-10-14T06:42:14.810Z,36.42
2022-10-14T06:44:41.258Z,33.78
2022-10-14T06:47:08.069Z,30.60
2022-10-14T06:49:34.755Z,31.92
2022-10-14T06:52:01.324Z,34.50
2022-10-14T06:54:27.807Z,34.58
2022-10-14T06:56:55.377Z,34.90
2022-10-14T06:59:21.921Z,31.80
2022-10-14T07:01:48.378Z,30.25
2022-10-14T07:04:14.803Z,34.40
2022-10-14T07:06:41.636Z,32.65
2022-10-14T07:09:08.070Z,32.95
2022-10-14T07:11:34.475Z,33.97
2022-10-14T07:14:00.945Z,34.97
2022-10-14T07:16:28.225Z,35.97
2022-10-14T07:18:54.716Z,33.95
2022-10-14T07:21:21.187Z,37.42
2022-10-14T07:23:47.641Z,35.58
2022-10-14T07:26:14.104Z,34.60
2022-10-14T07:28:40.598Z,34.03
2022-10-14T07:31:09.978Z,39.55
2022-10-14T07:36:16.078Z,40.20
2022-10-14T07:38:45.316Z,38.55
2022-10-14T07:41:18.082Z,39.05
2022-10-14T07:43:46.965Z,37.50
2022-10-14T07:46:14.541Z,37.92
2022-10-14T07:48:57.588Z,37.92
2022-10-14T07:51:25.135Z,35.15
2022-10-14T07:53:53.057Z,36.53
2022-10-14T07:56:19.930Z,32.13
2022-10-14T07:58:46.612Z,34.65
2022-10-14T08:01:15.276Z,34.88
2022-10-14T08:03:43.026Z,32.60
2022-10-14T08:06:09.783Z,33.33
2022-10-14T08:08:36.315Z,34.58
2022-10-14T08:11:13.268Z,38.45
2022-10-14T08:13:43.526Z,32.63
2022-10-14T08:16:26.996Z,39.42
2022-10-14T08:18:56.166Z,42.50
2022-10-14T08:21:22.713Z,43.40
2022-10-14T08:23:49.613Z,45.05
2022-10-14T08:26:36.240Z,44.97
2022-10-14T08:29:06.453Z,44.13
2022-10-14T08:31:33.788Z,44.95
2022-10-14T08:34:00.450Z,47.70
2022-10-14T08:36:26.953Z,51.03
2022-10-14T08:38:54.452Z,52.83
2022-10-14T08:41:38.941Z,50.03
2022-10-14T08:44:27.257Z,49.30
2022-10-14T08:46:59.270Z,49.28
2022-10-14T08:50:01.645Z,51.95
2022-10-14T08:52:36.461Z,56.70
2022-10-14T08:55:35.482Z,51.22
2022-10-14T08:58:16.082Z,51.80
2022-10-14T09:00:47.596Z,50.97
2022-10-14T09:03:20.578Z,53.42
2022-10-14T09:05:57.520Z,54.55
2022-10-14T09:08:30.934Z,54.10
2022-10-14T09:10:58.381Z,51.35
2022-10-14T09:13:35.027Z,49.83
2022-10-14T09:16:25.510Z,51.15
2022-10-14T09:18:58.012Z,55.57
2022-10-14T09:21:53.564Z,49.95
2022-10-14T09:24:26.847Z,52.47
2022-10-14T09:27:21.870Z,54.38
2022-10-14T09:29:59.086Z,57.67
2022-10-14T09:32:46.538Z,55.03
2022-10-14T09:35:17.157Z,53.47
2022-10-14T09:37:43.623Z,55.10
2022-10-14T09:40:13.196Z,56.75
2022-10-14T09:42:39.538Z,59.05
2022-10-14T09:45:08.834Z,59.20
2022-10-14T09:47:45.640Z,60.53
2022-10-14T09:50:22.068Z,58.28
2022-10-14T09:53:02.381Z,58.75
2022-10-14T09:55:29.775Z,58.17
2022-10-14T09:58:17.055Z,55.72
2022-10-14T10:00:45.892Z,57.15
2022-10-14T10:03:32.609Z,62.90
2022-10-14T10:06:10.857Z,55.28
2022-10-14T10:08:54.337Z,62.70
2022-10-14T10:11:46.941Z,58.90
2022-10-14T10:14:22.184Z,56.25
2022-10-14T10:19:32.094Z,56.63
2022-10-14T10:22:24.169Z,60.65
2022-10-14T10:25:12.129Z,63.55
2022-10-14T10:27:45.653Z,58.15
2022-10-14T10:30:15.285Z,62.58
2022-10-14T10:32:47.548Z,59.40
2022-10-14T10:35:29.661Z,61.63
2022-10-14T10:38:20.512Z,59.28
2022-10-14T10:41:18.693Z,57.92
2022-10-14T10:44:02.301Z,62.45
2022-10-14T10:47:09.696Z,57.58
2022-10-14T10:50:01.912Z,58.97
2022-10-14T10:53:07.051Z,63.97
2022-10-14T10:55:54.039Z,58.50
2022-10-14T10:58:20.711Z,58.15
2022-10-14T11:01:01.226Z,59.95
2022-10-14T11:03:58.899Z,65.70
2022-10-14T11:06:50.119Z,60.60
2022-10-14T11:12:29.714Z,56.08
2022-10-14T11:15:15.723Z,59.55
2022-10-14T11:18:02.227Z,63.17
2022-10-14T11:20:50.547Z,57.88
2022-10-14T11:23:57.095Z,61.45
2022-10-14T11:26:41.501Z,63.53
2022-10-14T11:29:22.935Z,58.67
2022-10-14T11:32:05.169Z,63.33
2022-10-14T11:34:38.020Z,62.55
2022-10-14T11:37:31.910Z,61.33
2022-10-14T11:40:02.738Z,59.78
2022-10-14T11:42:48.442Z,64.75
2022-10-14T11:45:35.144Z,61.83
2022-10-14T11:48:21.753Z,67.97
2022-10-14T11:50:56.224Z,63.10
2022-10-14T11:53:44.348Z,64.00
2022-10-14T11:56:23.949Z,60.97
2022-10-14T11:58:53.079Z,59.40
2022-10-14T12:01:26.484Z,61.67
2022-10-14T12:04:15.264Z,69.28
2022-10-14T12:06:49.008Z,66.38
2022-10-14T12:09:57.415Z,58.65
2022-10-14T12:12:29.121Z,63.97
2022-10-14T12:15:04.320Z,66.00
2022-10-14T12:17:39.151Z,65.82
2022-10-14T12:20:18.194Z,60.78
2022-10-14T12:22:49.394Z,61.75
2022-10-14T12:25:21.516Z,57.17
2022-10-14T12:27:50.119Z,54.53
2022-10-14T12:30:37.322Z,60.50
2022-10-14T12:33:09.453Z,58.80
2022-10-14T12:35:50.107Z,69.57
2022-10-14T12:38:16.524Z,60.75
2022-10-14T12:40:43.040Z,46.92
2022-10-14T12:43:12.424Z,50.10
2022-10-14T12:46:07.331Z,53.42
2022-10-14T12:48:36.169Z,48.67
2022-10-14T12:51:21.987Z,55.28
2022-10-14T12:53:57.986Z,52.67
2022-10-14T12:56:53.527Z,45.28
2022-10-14T12:59:28.517Z,66.55
2022-10-14T13:02:01.308Z,56.85
2022-10-14T13:04:28.613Z,53.05
2022-10-14T13:07:35.729Z,52.00
2022-10-14T13:10:26.972Z,53.95
2022-10-14T13:12:53.871Z,48.35
2022-10-14T13:15:36.068Z,46.90
2022-10-14T13:18:39.930Z,51.17
2022-10-14T13:21:08.816Z,51.17
2022-10-14T13:23:49.454Z,49.20
2022-10-14T13:26:21.698Z,52.35
2022-10-14T13:28:53.815Z,48.42
2022-10-14T13:31:27.927Z,46.65
2022-10-14T13:34:08.037Z,48.13
2022-10-14T13:36:39.825Z,55.10
2022-10-14T13:39:09.544Z,51.67
2022-10-14T13:41:37.807Z,51.28
2022-10-14T13:44:04.398Z,46.90
2022-10-14T13:46:41.595Z,51.25
2022-10-14T13:51:55.010Z,53.17
2022-10-14T13:54:23.925Z,52.35
2022-10-14T14:00:37.882Z,51.45
2022-10-14T14:02:34.908Z,49.60
2022-10-14T14:05:01.949Z,50.42
2022-10-14T14:07:59.596Z,55.22
2022-10-14T14:10:24.321Z,50.95
2022-10-14T14:12:51.384Z,48.70
2022-10-14T14:15:26.634Z,54.95
2022-10-14T14:17:53.835Z,53.33
2022-10-14T14:20:23.373Z,56.15
2022-10-14T14:22:50.417Z,58.75
2022-10-14T14:25:38.161Z,62.83
2022-10-14T14:28:06.898Z,55.40
2022-10-14T14:30:38.975Z,54.88
2022-10-14T14:33:12.223Z,57.25
2022-10-14T14:35:40.709Z,59.72
2022-10-14T14:38:24.218Z,59.97
2022-10-14T14:41:02.713Z,56.20
2022-10-14T14:43:34.735Z,59.75
2022-10-14T14:46:02.976Z,59.25
2022-10-14T14:48:30.892Z,63.35
2022-10-14T14:50:58.651Z,60.22
2022-10-14T14:53:29.578Z,55.28
2022-10-14T14:58:24.851Z,56.90
2022-10-14T15:00:54.046Z,61.38
2022-10-14T15:03:22.886Z,55.17
2022-10-14T15:06:00.494Z,52.35
2022-10-14T15:08:37.765Z,50.25
2022-10-14T15:11:04.627Z,51.22
2022-10-14T15:13:40.464Z,54.25
2022-10-14T15:16:08.575Z,48.47
2022-10-14T15:18:37.522Z,48.42
2022-10-14T15:21:19.130Z,48.80
2022-10-14T15:24:00.339Z,49.42
2022-10-14T15:26:35.269Z,46.80
2022-10-14T15:29:07.744Z,44.67
2022-10-14T15:31:35.913Z,45.42
2022-10-14T15:34:03.349Z,44.28
2022-10-14T15:36:34.788Z,45.95
2022-10-14T15:39:02.463Z,47.00
2022-10-14T15:41:29.164Z,48.10
2022-10-14T15:43:55.724Z,42.90
2022-10-14T15:46:41.587Z,49.67
2022-10-14T15:49:25.592Z,41.65
2022-10-14T15:51:52.026Z,45.88
2022-10-14T15:54:18.462Z,47.28
2022-10-14T15:56:46.259Z,50.38
2022-10-14T15:59:15.475Z,48.92
2022-10-14T16:01:42.868Z,47.50
2022-10-14T16:04:19.632Z,49.38
2022-10-14T16:06:46.788Z,50.88
2022-10-14T16:09:13.734Z,53.88
2022-10-14T16:11:40.219Z,46.85
2022-10-14T16:14:08.123Z,48.58
2022-10-14T16:16:40.532Z,49.08
2022-10-14T16:19:06.957Z,47.97
2022-10-14T16:21:33.591Z,46.10
2022-10-14T16:24:02.211Z,47.70
2022-10-14T16:26:29.360Z,43.42
2022-10-14T16:28:55.958Z,48.05
2022-10-14T16:31:23.085Z,44.65
2022-10-14T16:33:50.877Z,45.22
2022-10-14T16:36:17.482Z,45.03
2022-10-14T16:38:44.268Z,50.75
2022-10-14T16:41:11.747Z,43.88
2022-10-14T16:43:38.927Z,48.22
2022-10-14T16:46:07.503Z,46.63
2022-10-14T16:48:36.069Z,47.17
2022-10-14T16:51:03.520Z,48.65
2022-10-14T16:53:48.803Z,46.40
2022-10-14T16:56:38.913Z,46.55
2022-10-14T16:59:08.152Z,47.78
2022-10-14T17:01:34.697Z,49.60
2022-10-14T17:04:01.192Z,53.85
2022-10-14T17:06:27.622Z,53.38
2022-10-14T17:08:54.668Z,50.28
2022-10-14T17:11:21.328Z,48.25
2022-10-14T17:13:52.175Z,54.08
2022-10-14T17:16:18.609Z,57.58
2022-10-14T17:18:45.074Z,62.47
2022-10-14T17:21:12.224Z,52.70
2022-10-14T17:23:42.059Z,49.90
2022-10-14T17:26:11.952Z,53.38
2022-10-14T17:28:38.893Z,49.88
2022-10-14T17:31:10.692Z,48.63
2022-10-14T17:33:40.497Z,49.15
2022-10-14T17:36:07.832Z,49.63
2022-10-14T17:38:35.631Z,50.10
2022-10-14T17:41:09.769Z,50.00
2022-10-14T17:43:37.196Z,51.45
2022-10-14T17:48:42.253Z,61.60
2022-10-14T17:51:12.994Z,63.00
2022-10-14T17:53:40.201Z,58.60
2022-10-14T17:56:11.945Z,57.42
2022-10-14T17:58:38.873Z,56.30
2022-10-14T18:01:08.498Z,55.10
2022-10-14T18:03:36.949Z,51.92
2022-10-14T18:06:12.149Z,54.47
2022-10-14T18:08:40.233Z,54.47
2022-10-14T18:11:10.856Z,59.97
2022-10-14T18:16:13.125Z,55.50
2022-10-14T18:18:40.449Z,56.97
2022-10-14T18:21:07.622Z,53.28
2022-10-14T18:23:38.720Z,59.38
2022-10-14T18:28:43.104Z,54.70
2022-10-14T18:31:12.271Z,56.85
2022-10-14T18:33:39.803Z,56.72
2022-10-14T18:36:08.138Z,59.38
2022-10-14T18:38:35.162Z,56.30
2022-10-14T18:41:05.230Z,54.90
2022-10-14T18:43:32.548Z,56.97
2022-10-14T18:46:04.905Z,54.88
2022-10-14T18:48:31.695Z,59.88
2022-10-14T18:50:59.494Z,57.92
2022-10-14T18:53:26.608Z,55.10
2022-10-14T18:55:56.710Z,57.50
2022-10-14T18:58:26.012Z,54.88
2022-10-14T19:00:52.812Z,54.70
2022-10-14T19:03:19.293Z,57.55
2022-10-14T19:05:47.094Z,53.85
2022-10-14T19:10:45.410Z,53.67
2022-10-14T19:13:12.186Z,56.60
2022-10-14T19:15:45.333Z,54.55
2022-10-14T19:18:14.197Z,55.45
2022-10-14T19:20:41.832Z,52.60
2022-10-14T19:23:08.900Z,51.38
2022-10-14T19:25:36.366Z,51.03
2022-10-14T19:28:02.881Z,54.40
2022-10-14T19:30:29.288Z,52.42
2022-10-14T19:32:55.702Z,53.13
2022-10-14T19:35:22.134Z,54.05
2022-10-14T19:37:48.708Z,56.65
2022-10-14T19:40:18.660Z,53.90
2022-10-14T19:42:47.871Z,52.25
2022-10-14T19:45:14.338Z,56.55
2022-10-14T19:47:40.785Z,56.55
2022-10-14T19:50:07.656Z,50.78
2022-10-14T19:52:34.098Z,54.42
2022-10-14T19:55:00.669Z,53.92
2022-10-14T19:57:27.376Z,55.28
2022-10-14T19:59:53.971Z,53.58
2022-10-14T20:02:20.484Z,54.42
2022-10-14T20:04:46.908Z,53.28
2022-10-14T20:07:13.583Z,53.97
2022-10-14T20:09:40.001Z,57.08
2022-10-14T20:12:07.049Z,53.72
2022-10-14T20:14:33.473Z,51.92
2022-10-14T20:17:01.620Z,55.20
2022-10-14T20:19:28.044Z,64.07
2022-10-14T20:21:54.613Z,73.70
2022-10-14T20:24:21.075Z,61.42
2022-10-14T20:26:47.492Z,66.13
2022-10-14T20:29:14.141Z,54.50
2022-10-14T20:31:40.528Z,55.10
2022-10-14T20:34:10.418Z,55.30
2022-10-14T20:36:37.881Z,51.83
2022-10-14T20:39:04.338Z,56.83
2022-10-14T20:41:30.769Z,55.92
2022-10-14T20:43:57.317Z,53.03
2022-10-14T20:46:25.118Z,54.65
2022-10-14T20:48:58.118Z,53.03
2022-10-14T20:51:24.705Z,53.55
2022-10-14T20:54:00.380Z,54.67
2022-10-14T20:56:31.200Z,57.15
2022-10-14T20:58:59.766Z,56.35
2022-10-14T21:01:28.324Z,61.97
2022-10-14T21:03:56.040Z,57.95
2022-10-14T21:06:24.392Z,55.75
2022-10-14T21:08:51.775Z,51.85
2022-10-14T21:11:23.427Z,56.45
2022-10-14T21:13:54.906Z,55.47
2022-10-14T21:16:35.759Z,60.65
2022-10-14T21:19:07.768Z,57.13
2022-10-14T21:21:39.709Z,55.05
2022-10-14T21:24:07.009Z,54.30
2022-10-14T21:26:33.538Z,56.35
2022-10-14T21:29:02.177Z,59.13
2022-10-14T21:31:28.639Z,58.13
2022-10-14T21:34:01.127Z,55.90
2022-10-14T21:36:29.332Z,57.40
2022-10-14T21:38:57.086Z,55.10
2022-10-14T21:41:27.783Z,63.00
2022-10-14T21:43:58.717Z,57.58
2022-10-14T21:46:25.891Z,58.53
2022-10-14T21:48:57.148Z,60.30
2022-10-14T21:51:26.133Z,61.33
2022-10-14T21:53:52.597Z,60.47
2022-10-14T21:56:19.434Z,58.03
2022-10-14T21:58:45.858Z,57.35
2022-10-14T22:01:17.288Z,53.65
2022-10-14T22:03:44.669Z,58.20
2022-10-14T22:06:15.981Z,59.72
2022-10-14T22:08:45.769Z,61.97
2022-10-14T22:11:21.817Z,58.58
2022-10-14T22:13:49.303Z,61.88
2022-10-14T22:16:19.578Z,60.10
2022-10-14T22:18:47.655Z,63.03
2022-10-14T22:21:16.310Z,61.85
2022-10-14T22:23:43.255Z,64.22
2022-10-14T22:26:13.008Z,61.53
2022-10-14T22:28:40.170Z,58.90
2022-10-14T22:31:11.849Z,59.70
2022-10-14T22:33:39.699Z,63.75
2022-10-14T22:36:14.405Z,58.28
2022-10-14T22:38:43.659Z,60.10
2022-10-14T22:41:12.009Z,62.97
2022-10-14T22:43:39.137Z,56.05
2022-10-14T22:46:10.167Z,57.40
2022-10-14T22:48:37.036Z,63.35
2022-10-14T22:51:08.708Z,59.22
2022-10-14T22:53:35.613Z,58.95
2022-10-14T22:56:02.960Z,61.85
2022-10-14T22:58:29.435Z,57.42
2022-10-14T23:00:55.968Z,59.72
2022-10-14T23:03:22.517Z,61.05
2022-10-14T23:05:48.933Z,58.40
2022-10-14T23:08:15.567Z,55.70
2022-10-14T23:10:42.626Z,54.10
2022-10-14T23:13:09.488Z,56.88
2022-10-14T23:15:36.344Z,56.40
2022-10-14T23:18:03.412Z,61.65
2022-10-14T23:20:33.075Z,59.92
2022-10-14T23:22:59.467Z,59.15
2022-10-14T23:25:25.867Z,60.55
2022-10-14T23:27:52.255Z,57.45
2022-10-14T23:30:18.726Z,60.28
2022-10-14T23:32:45.106Z,56.17
2022-10-14T23:35:11.511Z,59.20
2022-10-14T23:37:37.922Z,63.25
2022-10-14T23:40:04.847Z,60.47
2022-10-14T23:42:31.284Z,61.00
2022-10-14T23:44:57.770Z,58.28
2022-10-14T23:47:24.484Z,53.28
2022-10-14T23:49:51.154Z,56.40
2022-10-14T23:52:17.564Z,58.05
2022-10-14T23:54:44.016Z,56.95
2022-10-14T23:57:10.457Z,57.67
2022-10-14T23:59:36.865Z,59.33
